sensor_id;sensor_type;location;lat;lon;timestamp;pressure;altitude;pressure_sealevel;temperature;humidity
43878;BME280;29815;48.184;11.268;2023-03-14T00:01:27;94090.69;;;9.41;100.00
43878;BME280;29815;48.184;11.268;2023-03-14T00:03:56;94078.44;;;9.35;100.00
43878;BME280;29815;48.184;11.268;2023-03-14T00:06:27;94070.69;;;9.34;100.00
43878;BME280;29815;48.184;11.268;2023-03-14T00:08:57;94084.91;;;9.34;100.00
43878;BME280;29815;48.184;11.268;2023-03-14T00:11:26;94104.00;;;9.33;100.00
43878;BME280;29815;48.184;11.268;2023-03-14T00:13:57;94103.69;;;9.34;100.00
43878;BME280;29815;48.184;11.268;2023-03-14T00:16:27;94115.22;;;9.35;100.00
43878;BME280;29815;48.184;11.268;2023-03-14T00:18:59;94123.69;;;9.28;100.00
43878;BME280;29815;48.184;11.268;2023-03-14T00:21:30;94120.72;;;9.30;100.00
43878;BME280;29815;48.184;11.268;2023-03-14T00:23:59;94115.94;;;9.27;100.00
43878;BME280;29815;48.184;11.268;2023-03-14T00:26:29;94112.75;;;9.25;100.00
43878;BME280;29815;48.184;11.268;2023-03-14T00:28:58;94107.88;;;9.27;100.00
43878;BME280;29815;48.184;11.268;2023-03-14T00:31:28;94101.22;;;9.24;100.00
43878;BME280;29815;48.184;11.268;2023-03-14T00:33:57;94106.00;;;9.27;100.00
43878;BME280;29815;48.184;11.268;2023-03-14T00:36:27;94106.00;;;9.27;100.00
43878;BME280;29815;48.184;11.268;2023-03-14T00:38:58;94099.13;;;9.21;100.00
43878;BME280;29815;48.184;11.268;2023-03-14T00:41:28;94106.97;;;9.18;100.00
43878;BME280;29815;48.184;11.268;2023-03-14T00:43:57;94118.50;;;9.18;100.00
43878;BME280;29815;48.184;11.268;2023-03-14T01:06:29;94130.75;;;9.24;100.00
43878;BME280;29815;48.184;11.268;2023-03-14T01:08:59;94121.09;;;9.23;100.00
43878;BME280;29815;48.184;11.268;2023-03-14T01:11:32;94129.66;;;9.25;100.00
43878;BME280;29815;48.184;11.268;2023-03-14T01:14:04;94137.88;;;9.15;100.00
43878;BME280;29815;48.184;11.268;2023-03-14T01:16:35;94141.38;;;9.15;100.00
43878;BME280;29815;48.184;11.268;2023-03-14T01:19:05;94142.31;;;9.06;100.00
43878;BME280;29815;48.184;11.268;2023-03-14T01:21:36;94156.13;;;8.99;100.00
43878;BME280;29815;48.184;11.268;2023-03-14T01:24:07;94149.19;;;8.98;100.00
43878;BME280;29815;48.184;11.268;2023-03-14T01:26:37;94152.06;;;9.02;100.00
43878;BME280;29815;48.184;11.268;2023-03-14T01:29:07;94151.75;;;9.03;100.00
43878;BME280;29815;48.184;11.268;2023-03-14T01:31:39;94152.94;;;8.97;100.00
43878;BME280;29815;48.184;11.268;2023-03-14T01:34:09;94164.78;;;8.96;100.00
43878;BME280;29815;48.184;11.268;2023-03-14T01:36:40;94167.16;;;8.98;100.00
43878;BME280;29815;48.184;11.268;2023-03-14T01:39:09;94168.53;;;8.95;100.00
43878;BME280;29815;48.184;11.268;2023-03-14T01:41:40;94172.31;;;8.94;100.00
43878;BME280;29815;48.184;11.268;2023-03-14T01:44:11;94178.84;;;8.88;100.00
43878;BME280;29815;48.184;11.268;2023-03-14T01:46:42;94168.47;;;8.81;100.00
43878;BME280;29815;48.184;11.268;2023-03-14T01:49:27;94169.16;;;8.73;100.00
43878;BME280;29815;48.184;11.268;2023-03-14T01:52:09;94169.09;;;8.60;100.00
43878;BME280;29815;48.184;11.268;2023-03-14T01:54:42;94160.25;;;8.59;100.00
43878;BME280;29815;48.184;11.268;2023-03-14T01:57:17;94166.47;;;8.55;100.00
43878;BME280;29815;48.184;11.268;2023-03-14T01:59:54;94154.38;;;8.57;100.00
43878;BME280;29815;48.184;11.268;2023-03-14T02:02:26;94139.25;;;8.47;100.00
43878;BME280;29815;48.184;11.268;2023-03-14T02:04:57;94148.84;;;8.48;100.00
43878;BME280;29815;48.184;11.268;2023-03-14T02:07:39;94133.16;;;8.42;100.00
43878;BME280;29815;48.184;11.268;2023-03-14T02:10:21;94112.59;;;8.37;100.00
43878;BME280;29815;48.184;11.268;2023-03-14T02:12:54;94092.72;;;8.20;100.00
43878;BME280;29815;48.184;11.268;2023-03-14T02:15:46;94078.53;;;8.19;100.00
43878;BME280;29815;48.184;11.268;2023-03-14T02:18:43;94065.19;;;8.14;100.00
43878;BME280;29815;48.184;11.268;2023-03-14T02:21:49;94046.28;;;8.05;100.00
43878;BME280;29815;48.184;11.268;2023-03-14T02:24:35;94015.59;;;7.98;100.00
43878;BME280;29815;48.184;11.268;2023-03-14T02:27:15;93997.28;;;7.86;100.00
43878;BME280;29815;48.184;11.268;2023-03-14T02:29:51;93971.38;;;7.81;100.00
43878;BME280;29815;48.184;11.268;2023-03-14T02:32:24;93968.97;;;7.80;100.00
43878;BME280;29815;48.184;11.268;2023-03-14T02:35:00;93962.91;;;7.74;100.00
43878;BME280;29815;48.184;11.268;2023-03-14T02:37:38;93946.31;;;7.72;100.00
43878;BME280;29815;48.184;11.268;2023-03-14T02:40:12;93956.75;;;7.74;100.00
43878;BME280;29815;48.184;11.268;2023-03-14T02:42:45;93968.19;;;7.79;100.00
43878;BME280;29815;48.184;11.268;2023-03-14T02:45:39;93975.66;;;7.82;100.00
43878;BME280;29815;48.184;11.268;2023-03-14T02:48:19;93975.19;;;7.94;100.00
43878;BME280;29815;48.184;11.268;2023-03-14T02:50:53;93986.84;;;8.03;100.00
43878;BME280;29815;48.184;11.268;2023-03-14T02:53:28;93992.63;;;8.10;100.00
43878;BME280;29815;48.184;11.268;2023-03-14T02:56:04;93987.56;;;8.09;100.00
43878;BME280;29815;48.184;11.268;2023-03-14T02:58:37;93989.88;;;8.15;100.00
43878;BME280;29815;48.184;11.268;2023-03-14T03:01:20;93990.16;;;8.14;100.00
43878;BME280;29815;48.184;11.268;2023-03-14T03:03:50;93991.75;;;8.15;100.00
43878;BME280;29815;48.184;11.268;2023-03-14T03:06:20;94006.53;;;8.12;100.00
43878;BME280;29815;48.184;11.268;2023-03-14T03:08:50;93999.78;;;8.15;100.00
43878;BME280;29815;48.184;11.268;2023-03-14T03:11:19;94005.09;;;8.01;100.00
43878;BME280;29815;48.184;11.268;2023-03-14T03:13:50;94009.72;;;7.96;100.00
43878;BME280;29815;48.184;11.268;2023-03-14T03:16:20;94004.34;;;7.96;100.00
43878;BME280;29815;48.184;11.268;2023-03-14T03:18:50;93998.00;;;7.92;100.00
43878;BME280;29815;48.184;11.268;2023-03-14T03:21:21;93989.75;;;7.88;100.00
43878;BME280;29815;48.184;11.268;2023-03-14T03:23:52;93998.00;;;7.92;100.00
43878;BME280;29815;48.184;11.268;2023-03-14T03:26:21;93996.78;;;7.84;100.00
43878;BME280;29815;48.184;11.268;2023-03-14T03:28:52;93992.56;;;7.78;100.00
43878;BME280;29815;48.184;11.268;2023-03-14T03:31:23;93993.03;;;7.85;100.00
43878;BME280;29815;48.184;11.268;2023-03-14T03:33:52;93986.44;;;7.77;100.00
43878;BME280;29815;48.184;11.268;2023-03-14T03:36:23;93980.41;;;7.67;100.00
43878;BME280;29815;48.184;11.268;2023-03-14T03:38:53;93975.72;;;7.77;100.00
43878;BME280;29815;48.184;11.268;2023-03-14T03:41:25;93981.06;;;7.77;100.00
43878;BME280;29815;48.184;11.268;2023-03-14T03:43:56;93975.72;;;7.77;100.00
43878;BME280;29815;48.184;11.268;2023-03-14T03:46:26;93969.41;;;7.68;100.00
43878;BME280;29815;48.184;11.268;2023-03-14T03:48:58;93967.69;;;7.59;100.00
43878;BME280;29815;48.184;11.268;2023-03-14T03:51:29;93975.44;;;7.60;100.00
43878;BME280;29815;48.184;11.268;2023-03-14T03:53:58;93968.72;;;7.63;100.00
43878;BME280;29815;48.184;11.268;2023-03-14T03:56:31;93975.22;;;7.57;100.00
43878;BME280;29815;48.184;11.268;2023-03-14T03:59:02;93970.66;;;7.57;100.00
43878;BME280;29815;48.184;11.268;2023-03-14T04:01:32;93969.63;;;7.72;100.00
43878;BME280;29815;48.184;11.268;2023-03-14T04:04:01;93975.16;;;7.62;100.00
43878;BME280;29815;48.184;11.268;2023-03-14T04:06:31;93973.78;;;7.64;100.00
43878;BME280;29815;48.184;11.268;2023-03-14T04:09:02;93981.72;;;7.69;100.00
43878;BME280;29815;48.184;11.268;2023-03-14T04:11:57;93967.34;;;7.65;100.00
43878;BME280;29815;48.184;11.268;2023-03-14T04:14:38;93971.38;;;7.63;100.00
43878;BME280;29815;48.184;11.268;2023-03-14T04:17:16;93963.34;;;7.63;100.00
43878;BME280;29815;48.184;11.268;2023-03-14T04:19:48;93957.50;;;7.61;100.00
43878;BME280;29815;48.184;11.268;2023-03-14T04:22:20;93972.19;;;7.63;100.00
43878;BME280;29815;48.184;11.268;2023-03-14T04:24:51;93976.47;;;7.64;100.00
43878;BME280;29815;48.184;11.268;2023-03-14T04:27:22;93960.38;;;7.64;100.00
43878;BME280;29815;48.184;11.268;2023-03-14T04:29:53;93957.72;;;7.64;100.00
43878;BME280;29815;48.184;11.268;2023-03-14T04:32:39;93965.75;;;7.64;100.00
43878;BME280;29815;48.184;11.268;2023-03-14T04:35:09;93959.09;;;7.62;100.00
43878;BME280;29815;48.184;11.268;2023-03-14T04:37:39;93953.88;;;7.52;100.00
43878;BME280;29815;48.184;11.268;2023-03-14T04:40:11;93950.91;;;7.53;100.00
43878;BME280;29815;48.184;11.268;2023-03-14T04:42:43;93954.38;;;7.54;100.00
43878;BME280;29815;48.184;11.268;2023-03-14T04:45:15;93954.44;;;7.48;100.00
43878;BME280;29815;48.184;11.268;2023-03-14T04:47:45;93949.94;;;7.44;100.00
43878;BME280;29815;48.184;11.268;2023-03-14T22:57:01;94846.69;;;3.45;100.00
43878;BME280;29815;48.184;11.268;2023-03-14T22:59:31;94844.75;;;3.40;100.00
43878;BME280;29815;48.184;11.268;2023-03-14T23:02:01;94842.75;;;3.48;100.00
43878;BME280;29815;48.184;11.268;2023-03-14T23:04:30;94848.69;;;3.38;100.00
43878;BME280;29815;48.184;11.268;2023-03-14T23:07:00;94844.09;;;3.33;100.00
43878;BME280;29815;48.184;11.268;2023-03-14T23:09:29;94845.91;;;3.28;100.00
43878;BME280;29815;48.184;11.268;2023-03-14T23:11:59;94836.47;;;3.20;100.00
43878;BME280;29815;48.184;11.268;2023-03-14T23:14:30;94838.94;;;3.10;100.00
43878;BME280;29815;48.184;11.268;2023-03-14T23:17:00;94845.22;;;3.04;100.00
43878;BME280;29815;48.184;11.268;2023-03-14T23:19:32;94848.28;;;3.13;100.00
43878;BME280;29815;48.184;11.268;2023-03-14T23:22:05;94838.94;;;3.10;100.00
43878;BME280;29815;48.184;11.268;2023-03-14T23:24:36;94840.38;;;3.01;100.00
43878;BME280;29815;48.184;11.268;2023-03-14T23:27:06;94833.16;;;3.13;100.00
43878;BME280;29815;48.184;11.268;2023-03-14T23:29:36;94837.22;;;3.04;100.00
43878;BME280;29815;48.184;11.268;2023-03-14T23:32:06;94843.31;;;2.99;100.00
43878;BME280;29815;48.184;11.268;2023-03-14T23:34:36;94841.13;;;2.96;100.00
43878;BME280;29815;48.184;11.268;2023-03-14T23:37:05;94832.81;;;2.93;100.00
43878;BME280;29815;48.184;11.268;2023-03-14T23:39:35;94828.22;;;2.88;100.00
43878;BME280;29815;48.184;11.268;2023-03-14T23:42:05;94829.72;;;2.84;100.00
43878;BME280;29815;48.184;11.268;2023-03-14T23:44:37;94833.09;;;2.80;100.00
43878;BME280;29815;48.184;11.268;2023-03-14T23:47:08;94833.63;;;2.93;100.00
43878;BME280;29815;48.184;11.268;2023-03-14T23:49:37;94831.53;;;2.95;100.00
43878;BME280;29815;48.184;11.268;2023-03-14T23:52:08;94837.41;;;2.97;100.00
43878;BME280;29815;48.184;11.268;2023-03-14T23:54:38;94837.22;;;3.04;100.00
